Startpagina
METAR-TAF:

METAR-TAF

Vliegvelden :

Honiara International Airport

Honiara, Guadalcanal, Salomonseilanden

breedte: 09-25S, lengte: 160-03E, hoogte: 8 m

Actueel weer

Dit bericht is 50 minuten geleden gemaakt, om 01:00 UTC
Wind 6 kt uit het noorden
Temperatuur 31°C
Vochtigheid 63%
Druk 1007 hPa
Zicht 10 km of meer
Weinig wolken op 2000 ft
Gebroken wolken op 30000 ft
Heiigheid

METAR: AGGH 180100Z 36006KT 9999 HZ FEW020 BKN300 31/23 Q1007

Tijdstip: 12:50 (01:50 UTC)

Verwachting

Dit bericht is 2 uur en het 25 minuten geleden gemaakt, om 23:25 UTC
Verwachting geldig van 18 om 00 UTC tot 18 om 24 UTC
Wind 12 kt uit het noordoosten
Zicht 10 km of meer
Verspreide wolken op 2000 ft
Van 18 om 0900 UTC
Wind 3 kt uit variabele richting
Zicht: 1007 m
Weinig wolken op 1700 ft

TAF: AGGH 172325Z 1800/1824 05012KT 9999 SCT020 FM180900 VRB03KT 9999 FEW017 T 31 32 30 28 Q 1008 1006 1005 1007

Waarnemingen en weersverwachtingen van meer dan 4000 vliegvelden (METAR en TAF).

De beschikbare stations zijn de gele en rode punten op de kaart.

Ga met uw muis naar het station om de naam te zien.

Klik dan om waarnemingen en weersverwachtingen te zien.

kaart wijzigen: klik op de groene knoppen met een zwart kruis om in te zoomen, op de groene knop met een streepje om uit te zoomen of op de groene pijlen voor aangrenzende kaarten.


METAR-TAF: